Time;durP1;ratioP1;P1;durP2;ratioP2;P2;SDS_P1;SDS_P2;PMS_P1;PMS_P2;Temp;Humidity;BMP_temperature;BMP_pressure;BME280_temperature;BME280_humidity;BME280_pressure;Samples;Min_cycle;Max_cycle;Signal;HPM_P1;HPM_P2
2023/12/16 05:06:25;;;;;;;0.30;0.30;;;6.70;99.90;;;;;;5416454;23;20239;-66
2023/12/16 05:08:50;;;;;;;0.30;0.30;;;6.70;99.90;;;;;;4975714;28;20189;-64
2023/12/16 05:11:16;;;;;;;0.40;0.40;;;6.70;99.90;;;;;;4976439;28;20202;-65
2023/12/16 05:13:43;;;;;;;0.30;0.30;;;6.70;99.90;;;;;;4975516;28;20179;-64
2023/12/16 05:16:08;;;;;;;0.30;0.30;;;6.70;99.90;;;;;;4975293;28;20233;-67
2023/12/16 05:18:34;;;;;;;0.40;0.40;;;6.70;99.90;;;;;;4975615;28;20202;-65
2023/12/16 05:20:59;;;;;;;0.60;0.60;;;6.60;99.90;;;;;;4975489;28;20167;-64
2023/12/16 05:23:25;;;;;;;0.30;0.30;;;6.60;99.90;;;;;;4975710;28;20197;-65
2023/12/16 05:25:51;;;;;;;0.30;0.30;;;6.60;99.90;;;;;;4973696;28;20214;-65
2023/12/16 05:28:16;;;;;;;0.40;0.40;;;6.60;99.90;;;;;;4974402;28;20185;-65
2023/12/16 05:30:42;;;;;;;0.40;0.40;;;6.60;99.90;;;;;;4975622;28;20167;-65
2023/12/16 05:33:07;;;;;;;0.30;0.30;;;6.60;99.90;;;;;;4975445;28;20251;-65
2023/12/16 05:35:33;;;;;;;0.47;0.47;;;6.60;99.90;;;;;;4973842;28;20359;-66
2023/12/16 05:37:59;;;;;;;0.43;0.43;;;6.60;99.90;;;;;;4975290;28;20172;-64
2023/12/16 05:40:24;;;;;;;0.30;0.30;;;6.50;99.90;;;;;;4975202;28;20206;-66
2023/12/16 05:42:50;;;;;;;0.30;0.30;;;6.50;99.90;;;;;;4975220;28;20176;-65
2023/12/16 05:45:15;;;;;;;0.27;0.27;;;6.50;99.90;;;;;;4974534;28;20199;-65
2023/12/16 05:47:41;;;;;;;0.30;0.30;;;6.50;99.90;;;;;;4975209;28;20649;-65
2023/12/16 05:50:09;;;;;;;0.30;0.30;;;6.50;99.90;;;;;;4975197;28;20162;-65
2023/12/16 05:52:36;;;;;;;0.30;0.30;;;6.50;99.90;;;;;;4973944;28;20176;-65
2023/12/16 05:55:02;;;;;;;0.30;0.30;;;6.50;99.90;;;;;;4974558;28;20190;-65
2023/12/16 05:57:28;;;;;;;0.30;0.30;;;6.40;99.90;;;;;;4974955;28;20238;-66
2023/12/16 05:59:54;;;;;;;0.20;0.20;;;6.40;99.90;;;;;;4974554;28;20423;-66
2023/12/16 06:02:19;;;;;;;0.30;0.30;;;6.40;99.90;;;;;;4974852;28;20168;-65
2023/12/16 06:04:45;;;;;;;0.30;0.30;;;6.40;99.90;;;;;;4974415;28;20250;-66
2023/12/16 06:07:10;;;;;;;0.30;0.30;;;6.40;99.90;;;;;;4974536;28;20581;-65
2023/12/16 06:09:36;;;;;;;0.30;0.30;;;6.40;99.90;;;;;;4974742;28;20175;-66
2023/12/16 06:12:02;;;;;;;0.33;0.33;;;6.40;99.90;;;;;;4974547;28;20563;-65
2023/12/16 06:14:27;;;;;;;0.37;0.37;;;6.30;99.90;;;;;;4974439;28;20234;-65
2023/12/16 06:16:55;;;;;;;0.40;0.40;;;6.40;99.90;;;;;;4974697;28;20199;-65
2023/12/16 06:19:21;;;;;;;0.30;0.30;;;6.40;99.90;;;;;;4974826;28;20594;-66
2023/12/16 06:21:47;;;;;;;0.30;0.30;;;6.30;99.90;;;;;;4974768;28;20171;-67
2023/12/16 06:24:12;;;;;;;0.40;0.40;;;6.30;99.90;;;;;;4974119;28;20183;-66
2023/12/16 06:26:38;;;;;;;0.33;0.33;;;6.30;99.90;;;;;;4974365;28;20259;-64
2023/12/16 06:29:03;;;;;;;0.30;0.30;;;6.30;99.90;;;;;;4974484;28;20171;-66
2023/12/16 06:31:29;;;;;;;0.40;0.40;;;6.30;99.90;;;;;;4974464;28;20175;-66
2023/12/16 06:33:54;;;;;;;0.30;0.30;;;6.30;99.90;;;;;;4974499;28;20175;-65
2023/12/16 06:36:20;;;;;;;0.30;0.30;;;6.30;99.90;;;;;;4973906;28;20234;-66
2023/12/16 06:38:47;;;;;;;0.20;0.20;;;6.20;99.90;;;;;;4974279;28;20667;-66
2023/12/16 06:41:12;;;;;;;0.30;0.30;;;6.20;99.90;;;;;;4974349;28;20179;-66
2023/12/16 06:43:38;;;;;;;0.30;0.30;;;6.20;99.90;;;;;;4974315;28;20235;-66
2023/12/16 06:46:05;;;;;;;0.30;0.30;;;6.30;99.90;;;;;;4973913;28;20679;-64
2023/12/16 06:48:30;;;;;;;0.30;0.30;;;6.30;99.90;;;;;;4974539;28;20176;-65
2023/12/16 06:50:57;;;;;;;0.30;0.30;;;6.30;99.90;;;;;;4974438;28;20215;-66
2023/12/16 06:53:23;;;;;;;0.40;0.40;;;6.30;99.90;;;;;;4974034;28;20679;-66
2023/12/16 06:55:49;;;;;;;0.35;0.35;;;6.30;99.90;;;;;;4973817;28;20203;-66
2023/12/16 06:58:15;;;;;;;0.50;0.50;;;6.30;99.90;;;;;;4974160;28;20215;-66
2023/12/16 07:00:40;;;;;;;0.37;0.37;;;6.30;99.90;;;;;;4974261;28;20644;-65
2023/12/16 07:03:06;;;;;;;0.30;0.30;;;6.40;99.90;;;;;;4972988;28;20180;-65
2023/12/16 07:05:34;;;;;;;0.30;0.30;;;6.30;99.90;;;;;;4973819;28;20284;-65
2023/12/16 07:08:00;;;;;;;0.45;0.45;;;6.20;99.90;;;;;;4973952;28;20190;-65
2023/12/16 07:10:25;;;;;;;0.30;0.30;;;6.20;99.90;;;;;;4974108;28;20258;-65
2023/12/16 07:12:51;;;;;;;0.30;0.30;;;6.20;99.90;;;;;;4974153;28;20198;-65
2023/12/16 07:15:19;;;;;;;0.20;0.20;;;6.20;99.90;;;;;;4973645;28;20195;-65
2023/12/16 07:17:45;;;;;;;0.30;0.30;;;6.20;99.90;;;;;;4974138;28;20220;-65
2023/12/16 07:20:11;;;;;;;0.30;0.30;;;6.20;99.90;;;;;;4974109;28;20172;-65
2023/12/16 07:22:37;;;;;;;0.30;0.30;;;6.20;99.90;;;;;;4974122;28;20247;-65
2023/12/16 07:25:04;;;;;;;0.30;0.30;;;6.30;99.90;;;;;;4973768;28;20431;-66
2023/12/16 07:27:30;;;;;;;0.30;0.30;;;6.30;99.90;;;;;;4973040;28;20625;-66
2023/12/16 07:29:56;;;;;;;0.30;0.30;;;6.30;99.90;;;;;;4976780;28;20164;-64
2023/12/16 07:32:23;;;;;;;0.30;0.30;;;6.30;99.90;;;;;;4977629;28;20656;-65
2023/12/16 07:34:50;;;;;;;0.88;0.88;;;6.20;99.90;;;;;;4977051;28;20686;-65
2023/12/16 07:37:15;;;;;;;0.30;0.30;;;6.30;99.90;;;;;;4977264;28;20690;-66
2023/12/16 07:39:41;;;;;;;0.93;0.93;;;6.30;99.90;;;;;;4976158;28;20183;-67
2023/12/16 07:42:07;;;;;;;0.30;0.30;;;6.30;99.90;;;;;;4975930;28;20168;-64
2023/12/16 07:44:32;;;;;;;0.30;0.30;;;6.40;99.90;;;;;;4976938;28;20644;-66
2023/12/16 07:46:58;;;;;;;0.37;0.37;;;6.40;99.90;;;;;;4977145;28;20215;-66
2023/12/16 07:49:25;;;;;;;0.30;0.30;;;6.40;99.90;;;;;;4975977;28;20342;-65
2023/12/16 07:51:54;;;;;;;0.30;0.30;;;6.40;99.90;;;;;;4977199;28;20571;-64
2023/12/16 07:54:24;;;;;;;0.60;0.60;;;6.40;99.90;;;;;;4976946;28;20190;-66
2023/12/16 07:56:50;;;;;;;0.30;0.30;;;6.30;99.90;;;;;;4976955;28;20211;-65
2023/12/16 07:59:16;;;;;;;0.30;0.30;;;6.30;99.90;;;;;;4976905;28;20186;-65
2023/12/16 08:01:41;;;;;;;0.30;0.30;;;6.30;99.90;;;;;;4976756;28;20175;-65
2023/12/16 08:04:07;;;;;;;0.30;0.30;;;6.40;99.90;;;;;;4976571;28;20176;-66
2023/12/16 08:06:33;;;;;;;0.40;0.40;;;6.40;99.90;;;;;;4976809;28;20216;-66
2023/12/16 08:08:58;;;;;;;0.33;0.33;;;6.40;99.90;;;;;;4976737;28;20167;-65
2023/12/16 08:11:24;;;;;;;0.30;0.30;;;6.50;99.90;;;;;;4976711;28;20548;-64
2023/12/16 08:13:50;;;;;;;0.30;0.30;;;6.50;99.90;;;;;;4976596;28;20651;-65
2023/12/16 08:16:15;;;;;;;0.30;0.30;;;6.50;99.90;;;;;;4976070;28;20188;-65
2023/12/16 08:18:41;;;;;;;0.30;0.30;;;6.50;99.90;;;;;;4976246;28;20506;-66
2023/12/16 08:21:07;;;;;;;0.63;0.63;;;6.60;99.90;;;;;;4975265;28;20195;-66
2023/12/16 08:23:32;;;;;;;0.40;0.40;;;6.60;99.90;;;;;;4976273;28;20178;-66
2023/12/16 08:25:58;;;;;;;0.30;0.30;;;6.60;99.90;;;;;;4975529;28;20259;-67
2023/12/16 08:28:24;;;;;;;0.30;0.30;;;6.60;99.90;;;;;;4976396;28;20211;-65
2023/12/16 08:30:52;;;;;;;0.50;0.50;;;6.60;99.90;;;;;;4975184;28;20404;-64
2023/12/16 08:33:17;;;;;;;0.38;0.38;;;6.60;99.90;;;;;;4974870;28;20631;-65
2023/12/16 08:35:44;;;;;;;0.30;0.30;;;6.70;99.90;;;;;;4975679;28;20265;-68
2023/12/16 08:38:09;;;;;;;0.30;0.30;;;6.70;99.90;;;;;;4976047;28;20191;-65
2023/12/16 08:40:35;;;;;;;0.30;0.30;;;6.80;99.90;;;;;;4975716;28;20175;-64
2023/12/16 08:43:00;;;;;;;0.30;0.30;;;6.80;99.90;;;;;;4975953;28;20176;-66
2023/12/16 08:45:26;;;;;;;0.30;0.30;;;6.80;99.90;;;;;;4994071;28;20234;-65
2023/12/16 08:47:52;;;;;;;0.30;0.30;;;6.80;99.90;;;;;;4995303;28;20171;-65
2023/12/16 08:50:17;;;;;;;0.30;0.30;;;6.80;99.90;;;;;;4994277;28;20542;-64
2023/12/16 08:52:43;;;;;;;0.30;0.30;;;6.90;99.90;;;;;;4993868;28;20180;-64
2023/12/16 08:55:08;;;;;;;0.30;0.30;;;6.90;99.90;;;;;;4994936;28;20222;-66
2023/12/16 08:57:34;;;;;;;0.63;0.63;;;7.00;99.90;;;;;;4995126;28;20546;-65
2023/12/16 08:59:59;;;;;;;0.30;0.30;;;7.00;99.90;;;;;;4995312;28;20222;-66
2023/12/16 09:02:25;;;;;;;0.30;0.30;;;7.00;99.90;;;;;;4995101;28;20233;-65
2023/12/16 09:04:51;;;;;;;0.40;0.40;;;7.10;99.90;;;;;;4994640;28;20171;-65
2023/12/16 09:07:17;;;;;;;0.30;0.30;;;7.10;99.90;;;;;;4993692;28;20222;-66
2023/12/16 09:09:44;;;;;;;0.30;0.30;;;7.10;99.90;;;;;;4995513;28;20238;-66
2023/12/16 09:12:10;;;;;;;0.75;0.75;;;7.20;99.90;;;;;;4995973;28;20504;-66
2023/12/16 09:14:37;;;;;;;0.30;0.30;;;7.30;99.90;;;;;;4973802;28;20176;-67
2023/12/16 09:17:03;;;;;;;0.30;0.30;;;7.30;99.90;;;;;;4956457;28;20789;-66
2023/12/16 09:19:28;;;;;;;0.30;0.30;;;7.40;99.90;;;;;;4962621;28;20180;-66
2023/12/16 09:21:54;;;;;;;0.40;0.40;;;7.40;99.90;;;;;;4975483;28;20183;-65
2023/12/16 09:24:20;;;;;;;0.20;0.20;;;7.50;99.90;;;;;;4974979;28;20231;-66
2023/12/16 09:26:47;;;;;;;0.30;0.30;;;7.50;99.90;;;;;;4975024;28;20294;-65
2023/12/16 09:29:13;;;;;;;0.30;0.30;;;7.60;99.90;;;;;;4975116;28;20176;-67
2023/12/16 09:31:38;;;;;;;0.30;0.30;;;7.60;99.90;;;;;;4968375;28;20215;-64
2023/12/16 09:34:04;;;;;;;0.30;0.30;;;7.60;99.90;;;;;;4955632;28;20409;-75
2023/12/16 09:36:30;;;;;;;0.30;0.30;;;7.70;99.90;;;;;;4954423;28;20203;-66
2023/12/16 09:38:59;;;;;;;0.30;0.30;;;7.60;99.90;;;;;;4955893;28;20181;-65
2023/12/16 09:41:29;;;;;;;0.40;0.40;;;7.60;99.90;;;;;;4955874;28;20173;-64
2023/12/16 09:43:59;;;;;;;0.30;0.30;;;7.70;99.90;;;;;;4955766;28;20169;-65
2023/12/16 09:46:31;;;;;;;0.20;0.20;;;7.70;99.90;;;;;;4955513;28;20192;-67
2023/12/16 09:48:58;;;;;;;0.30;0.30;;;7.80;99.90;;;;;;4956419;28;20236;-66
2023/12/16 09:51:25;;;;;;;0.20;0.20;;;7.80;99.90;;;;;;4953860;28;20649;-66
2023/12/16 09:53:51;;;;;;;0.35;0.35;;;7.90;99.90;;;;;;4956239;28;20193;-66
2023/12/16 09:56:17;;;;;;;0.30;0.30;;;8.00;99.90;;;;;;4955741;28;20641;-67
2023/12/16 09:58:46;;;;;;;1.05;1.05;;;8.00;99.90;;;;;;4955934;28;20491;-66
2023/12/16 10:01:12;;;;;;;0.30;0.30;;;8.10;99.90;;;;;;4955571;28;20186;-65
2023/12/16 10:03:39;;;;;;;0.40;0.40;;;8.10;99.90;;;;;;4955080;28;20196;-66
2023/12/16 10:06:06;;;;;;;0.47;0.47;;;8.10;99.90;;;;;;4954725;28;20260;-65
2023/12/16 10:08:36;;;;;;;1.38;1.00;;;8.10;99.90;;;;;;4964788;28;20204;-65
2023/12/16 10:11:03;;;;;;;0.40;0.40;;;8.20;99.90;;;;;;4974878;28;20560;-65
2023/12/16 10:13:30;;;;;;;0.93;0.93;;;8.10;99.90;;;;;;4974808;28;20168;-66
2023/12/16 10:15:57;;;;;;;0.40;0.40;;;8.20;99.90;;;;;;4974193;28;20188;-65
2023/12/16 10:18:23;;;;;;;0.30;0.30;;;8.30;99.90;;;;;;4974762;28;20176;-65
2023/12/16 10:20:49;;;;;;;0.30;0.30;;;8.20;99.90;;;;;;4972196;28;20187;-66
2023/12/16 10:23:15;;;;;;;0.30;0.30;;;8.10;99.90;;;;;;4974020;28;20695;-65
2023/12/16 10:25:41;;;;;;;0.30;0.28;;;8.10;99.90;;;;;;4973977;28;20454;-65
2023/12/16 10:28:07;;;;;;;0.30;0.20;;;8.10;99.90;;;;;;4974624;28;20227;-65
2023/12/16 10:30:33;;;;;;;0.30;0.30;;;8.10;99.90;;;;;;4974672;28;20172;-65
2023/12/16 10:33:03;;;;;;;0.30;0.30;;;8.00;99.90;;;;;;4966042;28;20202;-66
2023/12/16 10:35:30;;;;;;;0.40;0.40;;;8.00;99.90;;;;;;4969724;28;20431;-65
2023/12/16 10:37:55;;;;;;;0.52;0.47;;;8.00;99.90;;;;;;4959345;28;20200;-66
2023/12/16 10:40:22;;;;;;;0.40;0.40;;;8.00;99.90;;;;;;4954947;28;20206;-64
2023/12/16 10:42:48;;;;;;;0.30;0.30;;;8.10;99.90;;;;;;4954381;28;20194;-65
2023/12/16 10:45:14;;;;;;;0.40;0.40;;;8.10;99.90;;;;;;4954415;28;20292;-66
2023/12/16 10:47:41;;;;;;;0.40;0.40;;;8.20;99.90;;;;;;4960823;28;20168;-65
2023/12/16 10:50:07;;;;;;;0.30;0.30;;;8.20;99.90;;;;;;4993586;28;20635;-66
2023/12/16 10:52:42;;;;;;;0.40;0.40;;;8.10;99.90;;;;;;4993507;28;20177;-65
2023/12/16 10:55:14;;;;;;;0.30;0.20;;;8.20;99.90;;;;;;4993099;28;20190;-65
2023/12/16 10:58:03;;;;;;;0.30;0.30;;;8.30;99.90;;;;;;4992318;28;20230;-66
2023/12/16 11:00:34;;;;;;;0.30;0.20;;;8.40;99.90;;;;;;4992467;28;20234;-66
2023/12/16 11:03:07;;;;;;;0.30;0.30;;;8.40;99.90;;;;;;4962317;28;20233;-69
2023/12/16 11:05:42;;;;;;;0.30;0.30;;;8.40;99.90;;;;;;4958135;28;20208;-65
2023/12/16 11:08:08;;;;;;;0.30;0.30;;;8.50;99.90;;;;;;4958525;28;20191;-65
2023/12/16 11:10:35;;;;;;;0.38;0.38;;;8.70;99.90;;;;;;4958482;28;20169;-67
2023/12/16 11:13:02;;;;;;;0.30;0.30;;;8.70;99.90;;;;;;4958630;28;20204;-66
2023/12/16 11:15:31;;;;;;;0.40;0.40;;;8.70;99.90;;;;;;4958109;28;20244;-67
2023/12/16 11:18:00;;;;;;;0.30;0.30;;;8.70;99.90;;;;;;4959914;28;20174;-66
2023/12/16 11:20:39;;;;;;;0.30;0.30;;;8.70;99.90;;;;;;4977269;28;20681;-65
2023/12/16 11:23:04;;;;;;;0.30;0.30;;;8.60;99.90;;;;;;4968453;28;20500;-66
2023/12/16 11:25:33;;;;;;;0.30;0.30;;;8.60;99.90;;;;;;4957572;28;20196;-63
2023/12/16 11:28:01;;;;;;;0.30;0.30;;;8.50;99.90;;;;;;4956986;28;20721;-67
2023/12/16 11:30:30;;;;;;;0.30;0.28;;;8.60;99.90;;;;;;4958280;28;20522;-68
2023/12/16 11:32:57;;;;;;;0.38;0.38;;;8.50;99.90;;;;;;4958562;28;20504;-68
2023/12/16 11:35:42;;;;;;;0.30;0.30;;;8.50;99.90;;;;;;4968595;28;20359;-67
2023/12/16 11:38:08;;;;;;;0.30;0.20;;;8.50;99.90;;;;;;4976198;28;20169;-67
2023/12/16 11:40:41;;;;;;;0.20;0.20;;;8.60;99.90;;;;;;4977403;28;20201;-66
2023/12/16 11:43:07;;;;;;;0.20;0.20;;;8.60;99.90;;;;;;4977185;28;20166;-65
2023/12/16 11:45:42;;;;;;;0.20;0.20;;;8.60;99.90;;;;;;4965667;28;20210;-68
2023/12/16 11:48:12;;;;;;;0.82;0.82;;;8.60;99.90;;;;;;4959343;28;20174;-68
2023/12/16 11:50:39;;;;;;;0.30;0.30;;;8.60;99.90;;;;;;4975329;28;20260;-68
2023/12/16 11:53:09;;;;;;;0.30;0.30;;;8.60;99.90;;;;;;4969793;28;20265;-68
2023/12/16 11:55:35;;;;;;;0.70;0.70;;;8.60;99.90;;;;;;4956036;28;20202;-68
2023/12/16 11:58:02;;;;;;;0.32;0.32;;;8.60;99.90;;;;;;4957649;28;20647;-67
2023/12/16 12:00:28;;;;;;;0.30;0.30;;;8.60;99.90;;;;;;4957632;28;20230;-68
2023/12/16 12:02:54;;;;;;;0.30;0.20;;;8.60;99.90;;;;;;4960975;28;20262;-68
2023/12/16 12:05:20;;;;;;;0.30;0.28;;;8.70;99.90;;;;;;4974414;28;20700;-69
2023/12/16 12:07:46;;;;;;;0.30;0.30;;;8.70;99.90;;;;;;4972310;28;20201;-69
2023/12/16 12:10:12;;;;;;;0.30;0.30;;;8.70;99.90;;;;;;4957320;28;20273;-67
2023/12/16 12:12:38;;;;;;;0.40;0.40;;;8.70;99.90;;;;;;4960825;28;20277;-69
2023/12/16 12:15:07;;;;;;;0.30;0.30;;;8.70;99.90;;;;;;4964716;28;20188;-69
2023/12/16 12:17:33;;;;;;;0.30;0.30;;;8.80;99.90;;;;;;4976487;28;20553;-69
2023/12/16 12:19:59;;;;;;;0.20;0.20;;;8.80;99.90;;;;;;4962210;28;20247;-69
2023/12/16 12:22:25;;;;;;;0.50;0.50;;;8.90;99.90;;;;;;4957170;28;20171;-66
2023/12/16 12:24:51;;;;;;;0.50;0.50;;;8.90;99.90;;;;;;4956429;28;20654;-66
2023/12/16 12:27:18;;;;;;;0.50;0.50;;;8.90;99.90;;;;;;4958657;28;20206;-67
2023/12/16 12:30:06;;;;;;;0.28;0.28;;;8.90;99.90;;;;;;4957793;28;20411;-66
2023/12/16 12:32:33;;;;;;;0.30;0.30;;;8.90;99.90;;;;;;4957703;28;20169;-66
2023/12/16 12:35:02;;;;;;;0.30;0.30;;;9.00;99.90;;;;;;4955300;28;20183;-77
2023/12/16 12:37:43;;;;;;;0.30;0.30;;;9.10;99.90;;;;;;4956824;28;20206;-66
2023/12/16 12:40:12;;;;;;;0.50;0.50;;;9.10;99.90;;;;;;4956906;28;20707;-66
2023/12/16 12:42:57;;;;;;;0.30;0.30;;;8.90;99.90;;;;;;4956900;28;20189;-67
2023/12/16 12:45:24;;;;;;;0.30;0.30;;;8.70;99.90;;;;;;4956262;28;20289;-70
2023/12/16 12:47:50;;;;;;;0.20;0.20;;;8.60;99.90;;;;;;4956494;28;20590;-68
2023/12/16 12:50:33;;;;;;;0.30;0.30;;;8.60;99.90;;;;;;4956476;28;20169;-68
2023/12/16 12:52:59;;;;;;;0.88;0.70;;;8.70;99.90;;;;;;4952292;29;20465;-69
2023/12/16 12:55:25;;;;;;;0.30;0.20;;;8.60;99.90;;;;;;4965975;28;20228;-66
2023/12/16 12:57:51;;;;;;;0.40;0.40;;;8.60;99.90;;;;;;4975684;28;20192;-70
2023/12/16 13:00:17;;;;;;;0.95;0.95;;;8.60;99.90;;;;;;4975379;28;21138;-68
2023/12/16 13:02:42;;;;;;;0.30;0.30;;;8.60;99.90;;;;;;4975483;28;20180;-68
2023/12/16 13:05:08;;;;;;;0.30;0.30;;;8.50;99.90;;;;;;4975334;28;20523;-69
2023/12/16 13:07:34;;;;;;;0.80;0.80;;;8.40;99.90;;;;;;4964795;28;20215;-66
2023/12/16 13:09:59;;;;;;;0.40;0.40;;;8.40;99.90;;;;;;4983121;28;20579;-66
2023/12/16 13:12:25;;;;;;;0.30;0.30;;;8.50;99.90;;;;;;4968294;28;20181;-66
2023/12/16 13:14:51;;;;;;;0.57;0.43;;;8.50;99.90;;;;;;4958333;28;20681;-68
2023/12/16 13:17:17;;;;;;;0.30;0.30;;;8.50;99.90;;;;;;4956670;28;20213;-67
2023/12/16 13:19:42;;;;;;;0.30;0.30;;;8.60;99.90;;;;;;4968009;28;20700;-68
2023/12/16 13:22:08;;;;;;;0.30;0.30;;;8.70;99.90;;;;;;4974505;28;20223;-67
2023/12/16 13:24:34;;;;;;;0.40;0.40;;;8.80;99.90;;;;;;4955076;28;20709;-65
2023/12/16 13:27:00;;;;;;;0.30;0.27;;;8.90;99.90;;;;;;4955170;28;20312;-66
2023/12/16 13:29:26;;;;;;;0.30;0.30;;;9.00;99.90;;;;;;4961616;28;20541;-66
2023/12/16 13:31:55;;;;;;;2.23;1.37;;;8.90;99.90;;;;;;4957145;28;20177;-65
2023/12/16 13:34:21;;;;;;;0.20;0.20;;;9.00;99.90;;;;;;4956617;28;20414;-68
2023/12/16 13:36:47;;;;;;;0.30;0.30;;;8.90;99.90;;;;;;4971286;28;20212;-66
2023/12/16 13:39:12;;;;;;;0.30;0.30;;;8.90;99.90;;;;;;4961057;28;20185;-68
2023/12/16 13:41:38;;;;;;;0.40;0.40;;;8.90;99.90;;;;;;4973295;28;20184;-66
2023/12/16 13:44:04;;;;;;;0.30;0.30;;;8.90;99.90;;;;;;4972599;28;20683;-71
2023/12/16 13:46:30;;;;;;;0.20;0.20;;;8.80;99.90;;;;;;4971185;28;20212;-68
2023/12/16 13:48:57;;;;;;;0.30;0.30;;;8.80;99.90;;;;;;4969715;28;20223;-68
2023/12/16 13:51:22;;;;;;;0.32;0.32;;;8.80;99.90;;;;;;4963411;28;20237;-65
2023/12/16 13:53:48;;;;;;;0.30;0.30;;;8.70;99.90;;;;;;4958402;28;20173;-66
2023/12/16 13:56:13;;;;;;;0.30;0.23;;;8.70;99.90;;;;;;4954945;28;20681;-66
2023/12/16 13:58:40;;;;;;;0.30;0.30;;;8.70;99.90;;;;;;4955069;28;20185;-67
2023/12/16 14:01:06;;;;;;;0.30;0.30;;;8.60;99.90;;;;;;4955398;28;20181;-67
2023/12/16 14:03:31;;;;;;;0.30;0.20;;;8.60;99.90;;;;;;4954832;28;20185;-66
2023/12/16 14:05:57;;;;;;;0.30;0.30;;;8.50;99.90;;;;;;4954324;28;20200;-67
2023/12/16 14:08:22;;;;;;;0.30;0.30;;;8.50;99.90;;;;;;4955051;28;20183;-68
2023/12/16 14:10:49;;;;;;;0.30;0.30;;;8.40;99.90;;;;;;4955126;28;20169;-66
2023/12/16 14:13:14;;;;;;;0.30;0.30;;;8.40;99.90;;;;;;4971304;28;20188;-68
2023/12/16 14:15:40;;;;;;;0.37;0.37;;;8.40;99.90;;;;;;4973981;28;20214;-66
2023/12/16 14:18:06;;;;;;;0.30;0.20;;;8.20;99.90;;;;;;4975011;28;20172;-66
2023/12/16 14:20:31;;;;;;;0.40;0.40;;;8.20;99.90;;;;;;4974632;28;20884;-67
2023/12/16 14:22:57;;;;;;;0.40;0.40;;;8.20;99.90;;;;;;4974445;28;20176;-65
2023/12/16 14:25:22;;;;;;;0.40;0.40;;;8.20;99.90;;;;;;4973443;28;20283;-65
2023/12/16 14:27:49;;;;;;;0.33;0.33;;;8.30;99.90;;;;;;4974175;28;20219;-65
2023/12/16 14:30:16;;;;;;;0.35;0.35;;;8.30;99.90;;;;;;4974288;28;20573;-66
2023/12/16 14:32:41;;;;;;;0.77;0.77;;;8.30;99.90;;;;;;4973760;28;20165;-66
2023/12/16 14:35:10;;;;;;;0.30;0.30;;;8.40;99.90;;;;;;4972667;28;20203;-67
2023/12/16 14:37:36;;;;;;;0.30;0.30;;;8.40;99.90;;;;;;4973938;28;20254;-68
2023/12/16 14:40:02;;;;;;;0.30;0.30;;;8.30;99.90;;;;;;4974387;28;20677;-66
2023/12/16 14:42:27;;;;;;;0.30;0.27;;;8.30;99.90;;;;;;4974277;28;20260;-67
2023/12/16 14:44:53;;;;;;;0.30;0.30;;;8.40;99.90;;;;;;4973972;28;20503;-67
2023/12/16 14:47:22;;;;;;;0.33;0.33;;;8.40;99.90;;;;;;4974224;28;20210;-66
2023/12/16 14:49:54;;;;;;;0.30;0.30;;;8.40;99.90;;;;;;4972546;28;20183;-65
2023/12/16 14:52:23;;;;;;;0.30;0.30;;;8.40;99.90;;;;;;4974051;28;20255;-67
2023/12/16 14:54:52;;;;;;;0.40;0.40;;;8.30;99.90;;;;;;4973490;28;20187;-66
2023/12/16 14:57:18;;;;;;;0.30;0.30;;;8.30;99.90;;;;;;4974093;28;20188;-66
2023/12/16 14:59:44;;;;;;;0.63;0.63;;;8.30;99.90;;;;;;4974283;28;20176;-66
2023/12/16 15:02:10;;;;;;;0.30;0.30;;;8.20;99.90;;;;;;4972842;28;20645;-66
2023/12/16 15:04:35;;;;;;;0.60;0.60;;;8.20;99.90;;;;;;4973877;28;20187;-66
2023/12/16 15:07:01;;;;;;;0.30;0.27;;;8.20;99.90;;;;;;4973903;28;20216;-64
2023/12/16 15:09:28;;;;;;;0.30;0.30;;;8.30;99.90;;;;;;4954986;28;20279;-66
2023/12/16 15:11:55;;;;;;;0.30;0.30;;;8.20;99.90;;;;;;4954651;28;20169;-65
2023/12/16 15:14:20;;;;;;;0.30;0.30;;;8.10;99.90;;;;;;4953098;28;20691;-65
2023/12/16 15:16:46;;;;;;;0.30;0.20;;;8.00;99.90;;;;;;4954791;28;20224;-66
2023/12/16 15:19:13;;;;;;;0.40;0.40;;;7.90;99.90;;;;;;4954897;28;20215;-66
2023/12/16 15:21:39;;;;;;;0.30;0.30;;;7.80;99.90;;;;;;4953399;28;20581;-65
2023/12/16 15:24:05;;;;;;;0.30;0.30;;;7.60;99.90;;;;;;4967922;28;20180;-68
2023/12/16 15:26:31;;;;;;;0.40;0.40;;;7.50;99.90;;;;;;4973880;28;20636;-64
2023/12/16 15:28:57;;;;;;;0.30;0.30;;;7.40;99.90;;;;;;4974025;28;20263;-65
2023/12/16 15:31:23;;;;;;;0.30;0.30;;;7.30;99.90;;;;;;4974164;28;20182;-67
2023/12/16 15:33:49;;;;;;;0.65;0.65;;;7.20;99.90;;;;;;4974075;28;20411;-67
2023/12/16 15:36:15;;;;;;;0.30;0.30;;;7.10;99.90;;;;;;4973189;28;20254;-66
2023/12/16 15:38:40;;;;;;;1.13;1.13;;;7.00;99.90;;;;;;4973838;28;20168;-67
2023/12/16 15:41:13;;;;;;;0.30;0.30;;;6.90;99.90;;;;;;4973937;28;20176;-65
2023/12/16 15:43:39;;;;;;;0.60;0.60;;;6.80;99.90;;;;;;4973951;28;20540;-67
2023/12/16 15:46:04;;;;;;;0.30;0.30;;;6.80;99.90;;;;;;4973400;28;20192;-67
2023/12/16 15:48:30;;;;;;;0.40;0.40;;;6.70;99.90;;;;;;4972777;28;20176;-66
2023/12/16 15:50:55;;;;;;;0.30;0.30;;;6.60;99.90;;;;;;4976213;28;20179;-67
2023/12/16 15:53:21;;;;;;;0.30;0.30;;;6.50;99.90;;;;;;4977142;28;20168;-67
2023/12/16 15:55:47;;;;;;;0.30;0.30;;;6.50;99.90;;;;;;4976781;28;20262;-68
2023/12/16 15:58:12;;;;;;;0.30;0.30;;;6.40;99.90;;;;;;4975707;28;20176;-65
2023/12/16 16:00:38;;;;;;;0.40;0.40;;;6.40;99.90;;;;;;4976118;28;20267;-65
2023/12/16 16:03:03;;;;;;;0.30;0.30;;;6.30;99.90;;;;;;4977150;28;20226;-67
2023/12/16 16:05:29;;;;;;;0.67;0.67;;;6.30;99.90;;;;;;4966811;28;20725;-68
2023/12/16 16:07:55;;;;;;;0.30;0.30;;;6.20;99.90;;;;;;4957509;28;20247;-68
2023/12/16 16:10:20;;;;;;;0.30;0.30;;;6.20;99.90;;;;;;4957974;28;20168;-66
2023/12/16 16:12:47;;;;;;;0.30;0.30;;;6.20;99.90;;;;;;4957599;28;20404;-66
2023/12/16 16:15:13;;;;;;;0.30;0.30;;;6.10;99.90;;;;;;4957105;28;20192;-65
2023/12/16 16:17:38;;;;;;;0.30;0.30;;;6.10;99.90;;;;;;4958545;28;20569;-65
2023/12/16 16:20:07;;;;;;;0.33;0.33;;;6.00;99.90;;;;;;4975739;28;20476;-66
2023/12/16 16:22:33;;;;;;;1.65;1.55;;;5.90;99.90;;;;;;4976821;28;20172;-65
2023/12/16 16:24:58;;;;;;;0.30;0.30;;;5.90;99.90;;;;;;4976362;28;20168;-69
2023/12/16 16:27:24;;;;;;;0.30;0.30;;;5.80;99.90;;;;;;4976623;28;20675;-66
2023/12/16 16:29:50;;;;;;;0.33;0.33;;;5.80;99.90;;;;;;4976693;28;20545;-66
2023/12/16 16:32:15;;;;;;;0.50;0.50;;;5.70;99.90;;;;;;4976122;28;20507;-67
2023/12/16 16:34:41;;;;;;;0.43;0.43;;;5.60;99.90;;;;;;4956843;28;20181;-64
2023/12/16 16:37:08;;;;;;;0.30;0.30;;;5.60;99.90;;;;;;4957104;28;20212;-65
2023/12/16 16:39:34;;;;;;;0.93;0.90;;;5.60;99.90;;;;;;4957028;28;20412;-65
2023/12/16 16:41:59;;;;;;;0.30;0.30;;;5.50;99.90;;;;;;4956984;28;20186;-66
2023/12/16 16:44:25;;;;;;;0.30;0.30;;;5.50;99.90;;;;;;4956738;28;20419;-67
2023/12/16 16:46:51;;;;;;;0.30;0.30;;;5.40;99.90;;;;;;4956824;28;20672;-65
2023/12/16 16:49:18;;;;;;;0.30;0.30;;;5.40;99.90;;;;;;4975093;28;20179;-67
2023/12/16 16:51:44;;;;;;;0.32;0.32;;;5.40;99.90;;;;;;4976082;28;20170;-67
2023/12/16 16:54:15;;;;;;;0.40;0.40;;;5.30;99.90;;;;;;4975950;28;20289;-67
2023/12/16 16:56:40;;;;;;;0.40;0.40;;;5.30;99.90;;;;;;4976480;28;20194;-66
2023/12/16 16:59:06;;;;;;;0.40;0.40;;;5.20;99.90;;;;;;4976084;28;20175;-65
2023/12/16 17:01:31;;;;;;;0.40;0.40;;;5.20;99.90;;;;;;4975510;28;20182;-66
2023/12/16 17:03:57;;;;;;;0.77;0.77;;;5.10;99.90;;;;;;4960226;28;20216;-67
2023/12/16 17:06:23;;;;;;;0.30;0.30;;;5.00;99.90;;;;;;4955801;28;20672;-67
2023/12/16 17:08:49;;;;;;;0.40;0.40;;;5.00;99.90;;;;;;4956635;28;20559;-65
2023/12/16 17:11:15;;;;;;;0.50;0.50;;;5.00;99.90;;;;;;4956518;28;20248;-65
2023/12/16 17:13:40;;;;;;;0.30;0.30;;;5.00;99.90;;;;;;4956319;28;20254;-66
2023/12/16 17:16:08;;;;;;;0.50;0.50;;;4.90;99.90;;;;;;4956056;28;20278;-66
2023/12/16 17:18:34;;;;;;;0.60;0.60;;;4.90;99.90;;;;;;4956671;28;20182;-67
2023/12/16 17:21:00;;;;;;;0.30;0.30;;;4.90;99.90;;;;;;4973934;28;20185;-66
2023/12/16 17:23:25;;;;;;;0.40;0.40;;;4.80;99.90;;;;;;4975741;28;20313;-65
2023/12/16 17:25:51;;;;;;;0.50;0.50;;;4.80;99.90;;;;;;4975106;28;20208;-67
2023/12/16 17:28:16;;;;;;;0.50;0.50;;;4.80;99.90;;;;;;4975695;28;20616;-67
2023/12/16 17:30:42;;;;;;;0.40;0.40;;;4.70;99.90;;;;;;4958259;28;20190;-65
2023/12/16 17:33:09;;;;;;;0.60;0.60;;;4.70;99.90;;;;;;4955983;28;20536;-66
2023/12/16 17:35:38;;;;;;;0.30;0.30;;;4.70;99.90;;;;;;4955784;28;20215;-67
2023/12/16 17:38:03;;;;;;;0.40;0.40;;;4.70;99.90;;;;;;4956042;28;20234;-66
2023/12/16 17:40:29;;;;;;;0.30;0.30;;;4.60;99.90;;;;;;4956394;28;20171;-69
2023/12/16 17:42:55;;;;;;;0.30;0.30;;;4.60;99.90;;;;;;4956103;28;20173;-67
2023/12/16 17:45:20;;;;;;;0.30;0.30;;;4.60;99.90;;;;;;4971052;28;20269;-66
2023/12/16 17:47:47;;;;;;;0.37;0.37;;;4.50;99.90;;;;;;4974927;28;20227;-66
2023/12/16 17:50:13;;;;;;;0.40;0.40;;;4.50;99.90;;;;;;4975077;28;20200;-66
2023/12/16 17:52:39;;;;;;;0.30;0.30;;;4.40;99.90;;;;;;4975178;28;20166;-66
2023/12/16 17:55:05;;;;;;;0.40;0.40;;;4.40;99.90;;;;;;4974612;28;20194;-67
2023/12/16 17:57:31;;;;;;;0.55;0.55;;;4.30;99.90;;;;;;4974698;28;20209;-67
2023/12/16 17:59:56;;;;;;;0.30;0.30;;;4.30;99.90;;;;;;4959672;28;20209;-66